SETU/TUA METAR and TAF weather

Enter ICAO airport designator
Station Type Date Time Source
SETU METAR 2018/12/11 21:00 UTC NOAA

SETU 112100Z 08005KT 9999 VCSH OVC020 14/11 Q1031


Station Type Date Time Source
SETU Decoded METAR 2018/12/11 21:00 UTC NOAA

Tulcan / El Rosal, Ecuador (SETU) 00-49N 077-42W
Dec 11, 2018 - 04:00 PM EST / 2018.12.11 2100 UTC
Wind: from the E (080 degrees) at 6 MPH (5 KT):0
Visibility: greater than 7 mile(s):0
Sky conditions: overcast
Weather: showers in the vicinity
Temperature: 57 F (14 C)
Dew Point: 51 F (11 C)
Relative Humidity: 82%
Pressure (altimeter): 30.45 in. Hg (1031 hPa)
ob: SETU 112100Z 08005KT 9999 VCSH OVC020 14/11 Q1031
cycle: 21

Station Type Date Time Source
SETU TAF UTC NOAA

Error!


Example: see airport list